Corte Madera (442) Station Data

Red Flag Warning: No
Fire Weather Zone: 258
SDGE Region: Mountain Empire
Lat/Lon: 32.783/-116.55

Observations

Time Wind Speed/Gust Temp(F) RH Fuel Moist Fuel Temp(F) Dewpt(F) Tmax(F) Tmin(F) Accum Precip 10-min Precip SL Press(mb)
2/27 11:40pm 260 19 G 30 43° 96% - - 42° 45.3° 41.2° - - -
2/27 11:20pm 246 17 G 28 43° 97% - - 42° 45.3° 41.2° - - -
2/27 11:10pm 254 16 G 33 43° 97% - - 43° 45.3° 41.2° - - -
2/27 11:00pm 234 8 G 13 43° 97% - - 42° 45.3° 41.2° - - -
2/27 10:50pm 220 7 G 12 43° 97% - - 42° 45.3° 41.2° - - -
2/27 10:40pm 210 8 G 14 43° 97% - - 42° 45.3° 41.2° - - -
2/27 10:30pm 202 10 G 17 43° 97% - - 42° 45.3° 41.2° - - -
2/27 10:20pm 189 8 G 15 43° 97% - - 42° 45.3° 41.2° - - -
2/27 10:10pm 190 8 G 15 43° 97% - - 42° 45.3° 41.2° - - -
2/27 10:00pm 193 8 G 13 43° 97% - - 42° 45.3° 41.2° - - -
2/27 9:50pm 201 10 G 20 43° 97% - - 42° 45.3° 41.2° - - -
2/27 9:40pm 208 12 G 22 43° 97% - - 42° 45.3° 41.2° - - -
2/27 9:30pm 198 11 G 19 43° 97% - - 42° 45.3° 41.2° - - -
2/27 9:20pm 196 10 G 17 43° 97% - - 42° 45.3° 41.2° - - -
2/27 9:10pm 199 9 G 16 43° 97% - - 42° 45.3° 41.2° - - -
2/27 9:00pm 207 12 G 20 43° 97% - - 42° 45.3° 41.2° - - -
2/27 8:50pm 209 11 G 22 43° 97% - - 42° 45.3° 41.2° - - -
2/27 8:40pm 202 11 G 20 43° 97% - - 42° 45.3° 41.2° - - -
2/27 8:30pm 199 11 G 21 43° 97% - - 42° 45.3° 41.2° - - -
2/27 8:20pm 196 10 G 18 43° 97% - - 42° 45.3° 41.2° - - -
2/27 8:10pm 194 9 G 18 42° 97% - - 42° 45.3° 41.2° - - -
2/27 8:00pm 179 12 G 20 42° 98% - - 42° 45.3° 41.2° - - -
2/27 7:50pm 184 10 G 20 42° 97% - - 42° 45.3° 41.2° - - -
2/27 7:40pm 182 9 G 16 42° 97% - - 42° 45.3° 41.2° - - -
2/27 7:30pm 177 10 G 15 42° 97% - - 41° 45.3° 41.2° - - -
2/27 7:20pm 177 7 G 14 42° 97% - - 41° 45.3° 41.2° - - -
2/27 7:10pm 167 9 G 16 42° 97% - - 41° 45.3° 41.2° - - -
2/27 7:00pm 176 9 G 16 42° 97% - - 41° 45.3° 41.2° - - -
2/27 6:50pm 169 9 G 15 42° 97% - - 41° 45.3° 41.2° - - -
2/27 6:40pm 178 7 G 13 42° 97% - - 41° 45.3° 41.2° - - -
2/27 6:30pm 173 8 G 14 42° 97% - - 41° 45.3° 41.2° - - -
2/27 6:20pm 187 7 G 12 42° 97% - - 41° 45.3° 41.2° - - -
2/27 6:10pm 193 7 G 12 42° 97% - - 41° 45.3° 41.2° - - -
2/27 6:00pm 203 7 G 14 42° 96% - - 41° 45.3° 41.2° - - -
2/27 5:50pm 208 9 G 17 42° 96% - - 41° 45.3° 41.2° - - -
2/27 5:40pm 207 9 G 18 42° 96% - - 41° 45.3° 41.2° - - -
2/27 5:30pm 202 8 G 14 43° 96% - - 42° 45.3° 41.2° - - -
2/27 5:20pm 210 10 G 16 43° 96% - - 42° 45.3° 41.2° - - -
2/27 5:10pm 207 10 G 19 43° 96% - - 42° 45.3° 41.2° - - -
2/27 5:00pm 209 10 G 17 43° 96% - - 42° 45.3° 41.2° - - -
2/27 4:50pm 202 9 G 18 43° 96% - - 42° 45.3° 41.2° - - -
2/27 4:40pm 194 8 G 13 43° 95% - - 42° 45.3° 41.2° - - -
2/27 4:30pm 193 9 G 15 43° 94% - - 42° 45.3° 41.2° - - -
2/27 4:20pm 226 10 G 18 43° 95% - - 42° 45.3° 41.2° - - -
2/27 4:10pm 225 10 G 18 43° 96% - - 42° 45.3° 41.2° - - -
2/27 4:00pm 210 10 G 17 43° 95% - - 41° 45.3° 41.2° - - -
2/27 3:50pm 214 10 G 19 43° 95% - - 41° 45.3° 41.2° - - -
2/27 3:40pm 222 9 G 17 43° 95% - - 42° 45.3° 41.2° - - -
2/27 3:30pm 239 11 G 18 43° 93% - - 41° 45.3° 41.2° - - -
2/27 3:20pm 234 10 G 17 43° 94% - - 41° 45.3° 41.2° - - -
2/27 3:10pm 234 11 G 18 43° 93% - - 41° 45.3° 41.2° - - -
2/27 3:00pm 242 14 G 25 43° 94% - - 41° 45.3° 41.2° - - -
2/27 2:50pm 234 13 G 26 43° 96% - - 42° 45.3° 41.2° - - -
2/27 2:40pm 225 11 G 22 43° 96% - - 42° 45.3° 41.2° - - -
2/27 2:30pm 222 16 G 29 43° 95% - - 42° 45.3° 41.2° - - -
2/27 2:20pm 215 14 G 25 43° 96% - - 42° 45.3° 41.2° - - -
2/27 2:10pm 219 12 G 22 43° 97% - - 42° 45.3° 41.2° - - -
2/27 2:00pm 221 16 G 28 44° 97% - - 43° 45.3° 41.2° - - -
2/27 1:50pm 221 17 G 27 44° 97% - - 43° 45.3° 41.2° - - -
2/27 1:40pm 222 16 G 29 44° 97% - - 43° 45.3° 41.2° - - -
2/27 1:30pm 220 14 G 25 44° 97% - - 43° 45.3° 41.2° - - -
2/27 1:20pm 220 16 G 26 44° 97% - - 43° 45.3° 41.2° - - -
2/27 1:10pm 228 14 G 25 44° 97% - - 43° 45.3° 41.2° - - -
2/27 1:00pm 224 15 G 27 44° 96% - - 43° 45.3° 41.2° - - -
2/27 12:50pm 220 14 G 25 44° 96% - - 43° 45.3° 41.2° - - -
2/27 12:40pm 213 13 G 22 44° 96% - - 43° 45.3° 41.2° - - -
2/27 12:30pm 205 12 G 22 45° 96% - - 44° 45.3° 41.2° - - -
2/27 12:20pm 197 15 G 26 45° 96% - - 44° 45.3° 41.2° - - -
2/27 12:10pm 201 14 G 25 45° 96% - - 44° 45.3° 41.2° - - -
2/27 12:00pm 194 13 G 22 44° 96% - - 43° 45.3° 41.2° - - -
2/27 11:50am 206 12 G 23 44° 96% - - 43° 45.3° 41.2° - - -
2/27 11:40am 217 13 G 23 44° 96% - - 43° 45.3° 41.2° - - -
2/27 11:30am 212 13 G 21 45° 96% - - 43° 45.3° 41.2° - - -
2/27 11:20am 209 12 G 22 45° 96% - - 44° 45.3° 41.2° - - -
2/27 11:10am 216 10 G 17 45° 96% - - 44° 45.3° 41.2° - - -
2/27 11:00am 217 11 G 18 45° 96% - - 44° 45.3° 41.2° - - -
2/27 10:50am 213 9 G 16 45° 96% - - 44° 45.3° 41.2° - - -
2/27 10:40am 212 8 G 15 45° 97% - - 44° 45.2° 41.2° - - -
2/27 10:30am 221 8 G 15 45° 97% - - 44° 45.2° 41.2° - - -
2/27 10:20am 231 9 G 16 45° 97% - - 44° 45.2° 41.2° - - -
2/27 10:10am 213 10 G 19 45° 97% - - 44° 45.2° 41.2° - - -
2/27 10:00am 195 11 G 24 45° 97% - - 44° 45.2° 41.2° - - -
2/27 9:50am 196 10 G 15 45° 97% - - 44° 45.2° 41.2° - - -
2/27 9:40am 192 11 G 19 44° 97% - - 44° 45.2° 41.2° - - -
2/27 9:30am 184 12 G 21 44° 97% - - 43° 45.2° 41.2° - - -
2/27 9:20am 183 11 G 20 44° 97% - - 43° 45.2° 41.2° - - -
2/27 9:10am 193 11 G 22 44° 97% - - 43° 45.2° 41.2° - - -
2/27 9:00am 192 14 G 26 44° 97% - - 44° 45.2° 41.2° - - -
2/27 8:50am 191 13 G 20 45° 96% - - 44° 45.2° 41.2° - - -
2/27 8:40am 201 10 G 17 45° 96% - - 44° 45.2° 41.2° - - -
2/27 8:30am 198 11 G 18 45° 96% - - 44° 45.2° 41.2° - - -
2/27 8:20am 207 11 G 21 45° 96% - - 44° 45.2° 41.2° - - -
2/27 8:10am 194 8 G 17 45° 96% - - 44° 45.2° 41.2° - - -
2/27 8:00am 220 8 G 14 45° 96% - - 44° 45.2° 41.2° - - -
2/27 7:50am 214 10 G 17 45° 96% - - 44° 45.2° 41.2° - - -
2/27 7:40am 212 9 G 15 45° 96% - - 44° 45.1° 41.2° - - -
2/27 7:30am 214 11 G 19 45° 97% - - 44° 45.1° 41.2° - - -
2/27 7:20am 239 7 G 13 45° 97% - - 44° 44.8° 41.2° - - -
2/27 7:10am 225 8 G 14 45° 97% - - 44° 44.8° 41.2° - - -
2/27 7:00am 211 7 G 13 44° 97% - - 44° 44.7° 41.2° - - -
2/27 6:50am 206 9 G 18 45° 97% - - 44° 44.7° 41.2° - - -
2/27 6:40am 213 10 G 19 44° 97% - - 44° 44.6° 41.2° - - -
2/27 6:30am 204 9 G 17 44° 97% - - 44° 44.6° 41.2° - - -
2/27 6:20am 198 9 G 20 44° 97% - - 44° 44.5° 41.2° - - -
2/27 6:10am 198 10 G 16 44° 97% - - 43° 44.5° 41.2° - - -
2/27 6:00am 191 9 G 15 44° 97% - - 43° 44.5° 41.2° - - -
2/27 5:50am 185 9 G 16 44° 97% - - 43° 44.5° 41.2° - - -
2/27 5:40am 192 8 G 15 44° 97% - - 43° 44.5° 41.2° - - -
2/27 5:30am 197 10 G 17 44° 97% - - 44° 44.5° 41.2° - - -
2/27 5:20am 195 11 G 19 44° 97% - - 43° 44.5° 41.2° - - -
2/27 5:10am 197 10 G 17 44° 97% - - 43° 44.5° 41.2° - - -
2/27 5:00am 194 10 G 19 44° 97% - - 43° 44.5° 41.2° - - -
2/27 4:50am 198 11 G 20 44° 97% - - 43° 44.5° 41.2° - - -
2/27 4:40am 197 11 G 18 44° 97% - - 43° 44.4° 41.2° - - -
2/27 4:30am 200 8 G 16 44° 97% - - 43° 44.2° 41.2° - - -
2/27 4:20am 209 9 G 19 44° 97% - - 43° 44.2° 41.2° - - -
2/27 4:10am 201 8 G 15 44° 97% - - 43° 44.1° 41.2° - - -
2/27 4:00am 205 9 G 17 44° 97% - - 43° 44.1° 41.2° - - -
2/27 3:50am 213 8 G 17 44° 97% - - 43° 44° 41.2° - - -
2/27 3:40am 207 9 G 15 44° 97% - - 43° 44° 41.2° - - -
2/27 3:30am 206 8 G 16 44° 97% - - 43° 44° 41.2° - - -
2/27 3:20am 214 8 G 14 44° 97% - - 43° 44° 41.2° - - -
2/27 3:10am 213 7 G 11 44° 97% - - 43° 43.8° 41.2° - - -
2/27 3:00am 210 5 G 13 43° 97% - - 43° 43.5° 41.2° - - -
2/27 2:50am 212 6 G 11 43° 97% - - 42° 43.3° 41.2° - - -
2/27 2:40am 214 7 G 12 43° 97% - - 42° 43.1° 41.2° - - -
2/27 2:30am 218 8 G 15 43° 97% - - 42° 43° 41.2° - - -
2/27 2:20am 213 7 G 13 43° 97% - - 42° 42.9° 41.2° - - -
2/27 2:10am 220 9 G 16 43° 97% - - 42° 42.8° 41.2° - - -
2/27 2:00am 214 7 G 12 43° 97% - - 42° 42.8° 41.2° - - -
2/27 1:50am 232 6 G 10 43° 97% - - 42° 42.8° 41.2° - - -
2/27 1:40am 235 6 G 10 42° 97% - - 42° 42.7° 41.2° - - -
2/27 1:30am 246 8 G 12 42° 97% - - 42° 42.7° 41.2° - - -
2/27 1:20am 248 8 G 12 42° 97% - - 42° 42.5° 41.2° - - -
2/27 1:10am 252 7 G 11 42° 97% - - 42° 42.5° 41.2° - - -
2/27 1:00am 247 9 G 15 42° 97% - - 42° 42.5° 41.2° - - -
2/27 12:50am 250 7 G 12 42° 97% - - 41° 42.3° 41.2° - - -
2/27 12:40am 250 7 G 13 42° 97% - - 41° 42.3° 41.2° - - -
2/27 12:30am 248 8 G 14 42° 97% - - 41° 42.2° 41.2° - - -
2/27 12:20am 247 9 G 14 42° 97% - - 41° 42° 41.2° - - -
2/27 12:10am 251 8 G 12 42° 97% - - 41° 41.8° 41.2° - - -
2/27 12:00am 261 8 G 20 41° 98% - - 40° 42.4° 35° - - -
2/26 11:50pm 273 7 G 11 41° 98% - - 40° 42.4° 35° - - -
2/26 11:40pm 262 8 G 14 41° 98% - - 40° 42.4° 35° - - -
2/26 11:30pm 269 7 G 12 40° 98% - - 40° 42.4° 35° - - -
2/26 11:20pm 274 5 G 11 39° 98% - - 39° 42.4° 35° - - -
2/26 11:10pm 300 4 G 7 39° 98% - - 38° 42.4° 35° - - -
2/26 11:00pm 277 5 G 9 39° 97% - - 38° 42.4° 35° - - -
2/26 10:50pm 281 6 G 12 39° 97% - - 38° 42.4° 35° - - -
2/26 10:40pm 283 7 G 10 39° 97% - - 38° 42.4° 35° - - -
2/26 10:30pm 274 7 G 12 38° 96% - - 37° 42.4° 35° - - -
2/26 10:20pm 286 8 G 14 38° 95% - - 37° 42.4° 35° - - -
2/26 10:10pm 299 4 G 9 37° 96% - - 36° 42.4° 35° - - -
2/26 10:00pm 315 4 G 7 37° 97% - - 36° 42.4° 35° - - -
2/26 9:50pm 300 4 G 8 37° 97% - - 36° 42.4° 35° - - -
2/26 9:40pm 283 7 G 13 37° 97% - - 36° 42.4° 35° - - -
2/26 9:30pm 265 8 G 15 37° 97% - - 36° 42.4° 35° - - -
2/26 9:20pm 280 7 G 13 37° 96% - - 36° 42.4° 35° - - -
2/26 9:10pm 285 8 G 12 37° 96% - - 36° 42.4° 35° - - -
2/26 9:00pm 281 10 G 17 37° 95% - - 36° 42.4° 35° - - -
2/26 8:50pm 271 12 G 18 37° 96% - - 36° 42.4° 35° - - -
2/26 8:40pm 269 10 G 16 37° 97% - - 37° 42.4° 35° - - -
2/26 8:30pm 268 12 G 23 38° 97% - - 37° 42.4° 35° - - -
2/26 8:20pm 263 12 G 22 38° 97% - - 37° 42.4° 35° - - -
2/26 8:10pm 273 9 G 16 38° 97% - - 37° 42.4° 35° - - -
2/26 8:00pm 278 11 G 21 37° 96% - - 37° 42.4° 35° - - -
2/26 7:50pm 273 9 G 23 37° 96% - - 37° 42.4° 35° - - -
2/26 7:40pm 279 8 G 18 37° 96% - - 37° 42.4° 35° - - -
2/26 7:30pm 283 8 G 14 38° 96% - - 37° 42.4° 35° - - -
2/26 7:20pm 284 5 G 10 38° 96% - - 36° 42.4° 35° - - -
2/26 7:10pm 262 6 G 13 38° 95% - - 36° 42.4° 35° - - -
2/26 7:00pm 255 9 G 15 38° 95% - - 36° 42.4° 35° - - -
2/26 6:50pm 254 10 G 18 38° 95% - - 37° 42.4° 35° - - -
2/26 6:40pm 264 7 G 15 38° 95% - - 37° 42.4° 35° - - -
2/26 6:30pm 260 8 G 17 38° 94% - - 36° 42.4° 35° - - -
2/26 6:20pm 278 11 G 23 38° 94% - - 36° 42.4° 35° - - -
2/26 6:10pm 252 10 G 20 38° 95% - - 37° 42.4° 35° - - -
2/26 6:00pm 277 6 G 15 38° 95% - - 37° 42.4° 35° - - -
2/26 5:50pm 258 11 G 19 38° 94% - - 37° 42.4° 35° - - -
2/26 5:40pm 255 10 G 19 39° 95% - - 37° 42.4° 35° - - -
2/26 5:30pm 279 8 G 16 38° 95% - - 37° 42.4° 35° - - -
2/26 5:20pm 275 9 G 16 39° 94% - - 37° 42.4° 35° - - -
2/26 5:10pm 272 9 G 14 39° 94% - - 37° 42.4° 35° - - -
2/26 5:00pm 259 9 G 16 39° 94% - - 38° 42.4° 35° - - -